sensor_id;sensor_type;location;lat;lon;timestamp;temperature;humidity
76384;SHT30;65204;48.606;7.598;2022-12-26T00:00:28;13.50;68.88
76384;SHT30;65204;48.606;7.598;2022-12-26T00:01:01;13.50;68.79
76384;SHT30;65204;48.606;7.598;2022-12-26T00:01:36;13.48;68.81
76384;SHT30;65204;48.606;7.598;2022-12-26T00:02:07;13.50;68.77
76384;SHT30;65204;48.606;7.598;2022-12-26T00:02:37;13.51;68.77
76384;SHT30;65204;48.606;7.598;2022-12-26T00:03:08;13.51;68.81
76384;SHT30;65204;48.606;7.598;2022-12-26T00:03:38;13.48;68.84
76384;SHT30;65204;48.606;7.598;2022-12-26T00:04:09;13.51;68.80
76384;SHT30;65204;48.606;7.598;2022-12-26T00:04:39;13.53;68.83
76384;SHT30;65204;48.606;7.598;2022-12-26T00:05:10;13.51;68.62
76384;SHT30;65204;48.606;7.598;2022-12-26T00:05:40;13.51;68.63
76384;SHT30;65204;48.606;7.598;2022-12-26T00:06:13;13.50;68.62
76384;SHT30;65204;48.606;7.598;2022-12-26T00:06:43;13.50;68.58
76384;SHT30;65204;48.606;7.598;2022-12-26T00:07:14;13.51;68.60
76384;SHT30;65204;48.606;7.598;2022-12-26T00:07:44;13.51;68.63
76384;SHT30;65204;48.606;7.598;2022-12-26T00:08:15;13.51;68.66
76384;SHT30;65204;48.606;7.598;2022-12-26T00:08:46;13.53;68.56
76384;SHT30;65204;48.606;7.598;2022-12-26T00:09:16;13.50;68.49
76384;SHT30;65204;48.606;7.598;2022-12-26T00:09:47;13.51;68.59
76384;SHT30;65204;48.606;7.598;2022-12-26T00:10:17;13.51;68.55
76384;SHT30;65204;48.606;7.598;2022-12-26T00:10:48;13.50;68.49
76384;SHT30;65204;48.606;7.598;2022-12-26T00:11:19;13.51;68.42
76384;SHT30;65204;48.606;7.598;2022-12-26T00:11:49;13.50;68.41
76384;SHT30;65204;48.606;7.598;2022-12-26T00:12:20;13.53;68.45
76384;SHT30;65204;48.606;7.598;2022-12-26T00:12:50;13.50;68.60
76384;SHT30;65204;48.606;7.598;2022-12-26T00:13:21;13.53;68.61
76384;SHT30;65204;48.606;7.598;2022-12-26T00:13:59;13.50;68.61
76384;SHT30;65204;48.606;7.598;2022-12-26T00:14:29;13.50;68.68
76384;SHT30;65204;48.606;7.598;2022-12-26T00:15:00;13.51;68.69
76384;SHT30;65204;48.606;7.598;2022-12-26T00:15:30;13.51;68.72
76384;SHT30;65204;48.606;7.598;2022-12-26T00:16:12;13.51;68.81
76384;SHT30;65204;48.606;7.598;2022-12-26T00:16:45;13.51;68.80
76384;SHT30;65204;48.606;7.598;2022-12-26T00:17:15;13.51;68.61
76384;SHT30;65204;48.606;7.598;2022-12-26T00:17:46;13.50;68.69
76384;SHT30;65204;48.606;7.598;2022-12-26T00:18:17;13.50;68.72
76384;SHT30;65204;48.606;7.598;2022-12-26T00:18:48;13.51;68.59
76384;SHT30;65204;48.606;7.598;2022-12-26T00:19:18;13.45;68.61
76384;SHT30;65204;48.606;7.598;2022-12-26T00:19:48;13.48;68.66
76384;SHT30;65204;48.606;7.598;2022-12-26T00:20:19;13.47;68.74
76384;SHT30;65204;48.606;7.598;2022-12-26T00:20:49;13.47;68.79
76384;SHT30;65204;48.606;7.598;2022-12-26T00:21:21;13.48;68.68
76384;SHT30;65204;48.606;7.598;2022-12-26T00:21:52;13.45;68.72
76384;SHT30;65204;48.606;7.598;2022-12-26T00:22:23;13.47;68.84
76384;SHT30;65204;48.606;7.598;2022-12-26T00:22:53;13.50;68.85
76384;SHT30;65204;48.606;7.598;2022-12-26T00:23:23;13.47;68.67
76384;SHT30;65204;48.606;7.598;2022-12-26T00:23:56;13.48;68.70
76384;SHT30;65204;48.606;7.598;2022-12-26T00:24:26;13.50;68.63
76384;SHT30;65204;48.606;7.598;2022-12-26T00:24:57;13.48;68.71
76384;SHT30;65204;48.606;7.598;2022-12-26T00:25:27;13.48;68.68
76384;SHT30;65204;48.606;7.598;2022-12-26T00:26:16;13.50;68.61
76384;SHT30;65204;48.606;7.598;2022-12-26T00:26:46;13.48;68.65
76384;SHT30;65204;48.606;7.598;2022-12-26T00:27:17;13.50;68.67
76384;SHT30;65204;48.606;7.598;2022-12-26T00:27:47;13.50;68.66
76384;SHT30;65204;48.606;7.598;2022-12-26T00:28:17;13.48;68.67
76384;SHT30;65204;48.606;7.598;2022-12-26T00:28:48;13.50;68.73
76384;SHT30;65204;48.606;7.598;2022-12-26T00:29:18;13.45;68.62
76384;SHT30;65204;48.606;7.598;2022-12-26T00:29:49;13.47;68.66
76384;SHT30;65204;48.606;7.598;2022-12-26T00:30:19;13.50;68.60
76384;SHT30;65204;48.606;7.598;2022-12-26T00:30:49;13.50;68.75
76384;SHT30;65204;48.606;7.598;2022-12-26T00:31:23;13.48;68.81
76384;SHT30;65204;48.606;7.598;2022-12-26T00:31:54;13.50;68.84
76384;SHT30;65204;48.606;7.598;2022-12-26T00:32:24;13.50;68.79
76384;SHT30;65204;48.606;7.598;2022-12-26T00:32:54;13.48;68.74
76384;SHT30;65204;48.606;7.598;2022-12-26T00:33:25;13.50;68.64
76384;SHT30;65204;48.606;7.598;2022-12-26T00:33:55;13.48;68.64
76384;SHT30;65204;48.606;7.598;2022-12-26T00:34:25;13.50;68.69
76384;SHT30;65204;48.606;7.598;2022-12-26T00:34:56;13.50;68.65
76384;SHT30;65204;48.606;7.598;2022-12-26T00:35:26;13.48;68.67
76384;SHT30;65204;48.606;7.598;2022-12-26T00:36:04;13.50;68.69
76384;SHT30;65204;48.606;7.598;2022-12-26T00:36:36;13.48;68.67
76384;SHT30;65204;48.606;7.598;2022-12-26T00:37:07;13.45;68.66
76384;SHT30;65204;48.606;7.598;2022-12-26T00:37:37;13.51;68.82
76384;SHT30;65204;48.606;7.598;2022-12-26T00:38:07;13.48;68.86
76384;SHT30;65204;48.606;7.598;2022-12-26T00:38:39;13.48;68.93
76384;SHT30;65204;48.606;7.598;2022-12-26T00:39:10;13.47;68.94
76384;SHT30;65204;48.606;7.598;2022-12-26T00:39:41;13.47;68.93
76384;SHT30;65204;48.606;7.598;2022-12-26T00:40:11;13.44;68.90
76384;SHT30;65204;48.606;7.598;2022-12-26T00:40:41;13.45;68.84
76384;SHT30;65204;48.606;7.598;2022-12-26T00:41:15;13.48;68.86
76384;SHT30;65204;48.606;7.598;2022-12-26T00:41:46;13.47;68.80
76384;SHT30;65204;48.606;7.598;2022-12-26T00:42:16;13.50;68.86
76384;SHT30;65204;48.606;7.598;2022-12-26T00:42:46;13.50;68.83
76384;SHT30;65204;48.606;7.598;2022-12-26T00:43:17;13.48;68.78
76384;SHT30;65204;48.606;7.598;2022-12-26T00:43:48;13.50;68.71
76384;SHT30;65204;48.606;7.598;2022-12-26T00:44:19;13.50;68.60
76384;SHT30;65204;48.606;7.598;2022-12-26T00:44:49;13.50;68.47
76384;SHT30;65204;48.606;7.598;2022-12-26T00:45:19;13.47;68.56
76384;SHT30;65204;48.606;7.598;2022-12-26T00:45:50;13.51;68.63
76384;SHT30;65204;48.606;7.598;2022-12-26T00:46:20;13.53;68.72
76384;SHT30;65204;48.606;7.598;2022-12-26T00:46:51;13.50;68.80
76384;SHT30;65204;48.606;7.598;2022-12-26T00:47:21;13.51;68.78
76384;SHT30;65204;48.606;7.598;2022-12-26T00:47:51;13.54;68.59
76384;SHT30;65204;48.606;7.598;2022-12-26T00:48:22;13.50;68.38
76384;SHT30;65204;48.606;7.598;2022-12-26T00:48:53;13.51;68.31
76384;SHT30;65204;48.606;7.598;2022-12-26T00:49:23;13.51;68.29
76384;SHT30;65204;48.606;7.598;2022-12-26T00:49:53;13.51;68.44
76384;SHT30;65204;48.606;7.598;2022-12-26T00:50:24;13.51;68.54
76384;SHT30;65204;48.606;7.598;2022-12-26T00:50:54;13.47;68.38
76384;SHT30;65204;48.606;7.598;2022-12-26T00:51:25;13.47;68.60
76384;SHT30;65204;48.606;7.598;2022-12-26T00:51:55;13.54;68.50
76384;SHT30;65204;48.606;7.598;2022-12-26T00:52:26;13.47;68.61
76384;SHT30;65204;48.606;7.598;2022-12-26T00:52:56;13.47;68.55
76384;SHT30;65204;48.606;7.598;2022-12-26T00:53:27;13.50;68.61
76384;SHT30;65204;48.606;7.598;2022-12-26T00:53:57;13.50;68.69
76384;SHT30;65204;48.606;7.598;2022-12-26T00:54:27;13.50;68.64
76384;SHT30;65204;48.606;7.598;2022-12-26T00:54:58;13.48;68.72
76384;SHT30;65204;48.606;7.598;2022-12-26T00:55:28;13.51;68.81
76384;SHT30;65204;48.606;7.598;2022-12-26T00:55:59;13.53;68.52
76384;SHT30;65204;48.606;7.598;2022-12-26T00:56:29;13.50;68.36
76384;SHT30;65204;48.606;7.598;2022-12-26T00:56:59;13.53;68.47
76384;SHT30;65204;48.606;7.598;2022-12-26T00:57:30;13.53;68.73
76384;SHT30;65204;48.606;7.598;2022-12-26T00:58:00;13.54;68.81
76384;SHT30;65204;48.606;7.598;2022-12-26T00:58:30;13.55;68.85
76384;SHT30;65204;48.606;7.598;2022-12-26T00:59:01;13.57;68.78
76384;SHT30;65204;48.606;7.598;2022-12-26T00:59:31;13.58;68.64
76384;SHT30;65204;48.606;7.598;2022-12-26T01:00:02;13.61;68.56
76384;SHT30;65204;48.606;7.598;2022-12-26T01:00:33;13.59;68.59
76384;SHT30;65204;48.606;7.598;2022-12-26T01:01:09;13.62;68.54
76384;SHT30;65204;48.606;7.598;2022-12-26T01:01:39;13.59;68.36
76384;SHT30;65204;48.606;7.598;2022-12-26T01:02:10;13.55;68.35
76384;SHT30;65204;48.606;7.598;2022-12-26T01:03:01;13.58;68.41
76384;SHT30;65204;48.606;7.598;2022-12-26T01:03:32;13.62;68.47
76384;SHT30;65204;48.606;7.598;2022-12-26T01:04:02;13.61;68.39
76384;SHT30;65204;48.606;7.598;2022-12-26T01:04:34;13.59;68.31
76384;SHT30;65204;48.606;7.598;2022-12-26T01:05:06;13.64;68.35
76384;SHT30;65204;48.606;7.598;2022-12-26T01:05:41;13.61;68.36
76384;SHT30;65204;48.606;7.598;2022-12-26T01:06:12;13.62;68.47
76384;SHT30;65204;48.606;7.598;2022-12-26T01:06:43;13.67;68.58
76384;SHT30;65204;48.606;7.598;2022-12-26T01:07:13;13.65;68.52
76384;SHT30;65204;48.606;7.598;2022-12-26T01:07:44;13.68;68.52
76384;SHT30;65204;48.606;7.598;2022-12-26T01:08:15;13.69;68.47
76384;SHT30;65204;48.606;7.598;2022-12-26T01:08:45;13.71;68.48
76384;SHT30;65204;48.606;7.598;2022-12-26T01:09:16;13.69;68.61
76384;SHT30;65204;48.606;7.598;2022-12-26T01:09:46;13.69;68.46
76384;SHT30;65204;48.606;7.598;2022-12-26T01:10:16;13.69;68.39
76384;SHT30;65204;48.606;7.598;2022-12-26T01:10:47;13.69;68.51
76384;SHT30;65204;48.606;7.598;2022-12-26T01:11:18;13.72;68.38
76384;SHT30;65204;48.606;7.598;2022-12-26T01:12:08;13.76;68.41
76384;SHT30;65204;48.606;7.598;2022-12-26T01:12:38;13.75;68.31
76384;SHT30;65204;48.606;7.598;2022-12-26T01:13:09;13.78;68.31
76384;SHT30;65204;48.606;7.598;2022-12-26T01:13:40;13.75;68.24
76384;SHT30;65204;48.606;7.598;2022-12-26T01:14:13;13.75;68.29
76384;SHT30;65204;48.606;7.598;2022-12-26T01:14:44;13.75;68.13
76384;SHT30;65204;48.606;7.598;2022-12-26T01:15:14;13.74;68.19
76384;SHT30;65204;48.606;7.598;2022-12-26T01:15:49;13.76;68.30
76384;SHT30;65204;48.606;7.598;2022-12-26T01:16:20;13.74;68.28
76384;SHT30;65204;48.606;7.598;2022-12-26T01:16:50;13.72;68.24
76384;SHT30;65204;48.606;7.598;2022-12-26T01:17:20;13.74;68.39
76384;SHT30;65204;48.606;7.598;2022-12-26T01:17:51;13.75;68.40
76384;SHT30;65204;48.606;7.598;2022-12-26T01:18:21;13.75;68.44
76384;SHT30;65204;48.606;7.598;2022-12-26T01:18:52;13.75;68.20
76384;SHT30;65204;48.606;7.598;2022-12-26T01:19:22;13.76;68.24
76384;SHT30;65204;48.606;7.598;2022-12-26T01:19:53;13.76;68.18
76384;SHT30;65204;48.606;7.598;2022-12-26T01:20:23;13.76;68.22
76384;SHT30;65204;48.606;7.598;2022-12-26T01:21:11;13.81;68.08
76384;SHT30;65204;48.606;7.598;2022-12-26T01:21:41;13.72;68.07
76384;SHT30;65204;48.606;7.598;2022-12-26T01:22:12;13.76;67.99
76384;SHT30;65204;48.606;7.598;2022-12-26T01:22:43;13.76;68.15
76384;SHT30;65204;48.606;7.598;2022-12-26T01:23:14;13.72;68.16
76384;SHT30;65204;48.606;7.598;2022-12-26T01:23:44;13.74;68.23
76384;SHT30;65204;48.606;7.598;2022-12-26T01:24:15;13.75;68.19
76384;SHT30;65204;48.606;7.598;2022-12-26T01:24:45;13.75;68.07
76384;SHT30;65204;48.606;7.598;2022-12-26T01:25:15;13.74;68.00
76384;SHT30;65204;48.606;7.598;2022-12-26T01:25:46;13.76;67.92
76384;SHT30;65204;48.606;7.598;2022-12-26T01:26:16;13.76;67.91
76384;SHT30;65204;48.606;7.598;2022-12-26T01:26:46;13.78;68.08
76384;SHT30;65204;48.606;7.598;2022-12-26T01:27:17;13.75;68.06
76384;SHT30;65204;48.606;7.598;2022-12-26T01:27:48;13.76;68.12
76384;SHT30;65204;48.606;7.598;2022-12-26T01:28:20;13.79;68.07
76384;SHT30;65204;48.606;7.598;2022-12-26T01:28:51;13.78;67.98
76384;SHT30;65204;48.606;7.598;2022-12-26T01:29:22;13.76;67.91
76384;SHT30;65204;48.606;7.598;2022-12-26T01:29:53;13.81;67.99
76384;SHT30;65204;48.606;7.598;2022-12-26T01:30:23;13.83;67.99
76384;SHT30;65204;48.606;7.598;2022-12-26T01:30:54;13.82;68.00
76384;SHT30;65204;48.606;7.598;2022-12-26T01:31:24;13.83;67.98
76384;SHT30;65204;48.606;7.598;2022-12-26T01:31:58;13.81;67.75
76384;SHT30;65204;48.606;7.598;2022-12-26T01:32:28;13.83;67.81
76384;SHT30;65204;48.606;7.598;2022-12-26T01:32:59;13.85;67.97
76384;SHT30;65204;48.606;7.598;2022-12-26T01:33:30;13.88;67.78
76384;SHT30;65204;48.606;7.598;2022-12-26T01:34:00;13.86;67.72
76384;SHT30;65204;48.606;7.598;2022-12-26T01:34:31;13.86;67.66
76384;SHT30;65204;48.606;7.598;2022-12-26T01:35:01;13.86;67.58
76384;SHT30;65204;48.606;7.598;2022-12-26T01:35:32;13.85;67.57
76384;SHT30;65204;48.606;7.598;2022-12-26T01:36:02;13.86;67.67
76384;SHT30;65204;48.606;7.598;2022-12-26T01:36:33;13.89;67.63
76384;SHT30;65204;48.606;7.598;2022-12-26T01:37:03;13.86;67.62
76384;SHT30;65204;48.606;7.598;2022-12-26T01:37:33;13.89;67.83
76384;SHT30;65204;48.606;7.598;2022-12-26T01:38:04;13.83;67.66
76384;SHT30;65204;48.606;7.598;2022-12-26T01:38:34;13.89;67.68
76384;SHT30;65204;48.606;7.598;2022-12-26T01:39:05;13.88;67.70
76384;SHT30;65204;48.606;7.598;2022-12-26T01:39:35;13.90;67.61
76384;SHT30;65204;48.606;7.598;2022-12-26T01:40:06;13.89;67.61
76384;SHT30;65204;48.606;7.598;2022-12-26T01:40:41;13.89;67.51
76384;SHT30;65204;48.606;7.598;2022-12-26T01:41:12;13.89;67.55
76384;SHT30;65204;48.606;7.598;2022-12-26T01:41:46;13.94;67.66
76384;SHT30;65204;48.606;7.598;2022-12-26T01:42:19;13.94;67.57
76384;SHT30;65204;48.606;7.598;2022-12-26T01:42:50;13.95;67.55
76384;SHT30;65204;48.606;7.598;2022-12-26T01:43:20;13.92;67.61
76384;SHT30;65204;48.606;7.598;2022-12-26T01:44:06;13.94;67.65
76384;SHT30;65204;48.606;7.598;2022-12-26T01:45:20;13.96;67.39
76384;SHT30;65204;48.606;7.598;2022-12-26T01:45:51;13.96;67.55
76384;SHT30;65204;48.606;7.598;2022-12-26T01:46:37;13.96;67.45
76384;SHT30;65204;48.606;7.598;2022-12-26T01:47:07;13.96;67.48
76384;SHT30;65204;48.606;7.598;2022-12-26T01:48:20;13.96;67.54
76384;SHT30;65204;48.606;7.598;2022-12-26T01:48:51;13.94;67.59
76384;SHT30;65204;48.606;7.598;2022-12-26T01:49:36;13.95;67.66
76384;SHT30;65204;48.606;7.598;2022-12-26T01:50:20;13.96;67.58
76384;SHT30;65204;48.606;7.598;2022-12-26T01:51:01;13.96;67.54
76384;SHT30;65204;48.606;7.598;2022-12-26T01:51:36;13.98;67.47
76384;SHT30;65204;48.606;7.598;2022-12-26T01:52:11;13.96;67.68
76384;SHT30;65204;48.606;7.598;2022-12-26T01:52:46;13.98;67.62
76384;SHT30;65204;48.606;7.598;2022-12-26T01:53:21;13.95;67.77
76384;SHT30;65204;48.606;7.598;2022-12-26T01:53:55;13.94;67.61
76384;SHT30;65204;48.606;7.598;2022-12-26T01:54:29;13.96;67.64
76384;SHT30;65204;48.606;7.598;2022-12-26T01:55:03;13.95;67.68
76384;SHT30;65204;48.606;7.598;2022-12-26T01:55:36;13.96;67.64
76384;SHT30;65204;48.606;7.598;2022-12-26T01:56:16;13.94;67.65
76384;SHT30;65204;48.606;7.598;2022-12-26T01:56:48;13.92;67.75
76384;SHT30;65204;48.606;7.598;2022-12-26T01:57:25;13.92;67.64
76384;SHT30;65204;48.606;7.598;2022-12-26T01:58:01;13.96;67.68
76384;SHT30;65204;48.606;7.598;2022-12-26T01:58:40;13.94;67.68
76384;SHT30;65204;48.606;7.598;2022-12-26T01:59:17;13.95;67.70
76384;SHT30;65204;48.606;7.598;2022-12-26T01:59:49;13.96;67.33
76384;SHT30;65204;48.606;7.598;2022-12-26T02:00:20;13.92;67.23
76384;SHT30;65204;48.606;7.598;2022-12-26T02:00:51;13.95;67.40
76384;SHT30;65204;48.606;7.598;2022-12-26T02:01:25;13.95;67.56
76384;SHT30;65204;48.606;7.598;2022-12-26T02:01:59;13.96;67.46
76384;SHT30;65204;48.606;7.598;2022-12-26T02:02:30;13.96;67.45
76384;SHT30;65204;48.606;7.598;2022-12-26T02:03:21;13.96;67.45
76384;SHT30;65204;48.606;7.598;2022-12-26T02:04:13;13.96;67.67
76384;SHT30;65204;48.606;7.598;2022-12-26T02:05:03;13.98;67.53
76384;SHT30;65204;48.606;7.598;2022-12-26T02:05:55;13.96;67.67
76384;SHT30;65204;48.606;7.598;2022-12-26T02:06:26;13.96;67.66
76384;SHT30;65204;48.606;7.598;2022-12-26T02:06:56;13.98;67.63
76384;SHT30;65204;48.606;7.598;2022-12-26T02:07:27;13.94;67.54
76384;SHT30;65204;48.606;7.598;2022-12-26T02:07:57;13.96;67.62
76384;SHT30;65204;48.606;7.598;2022-12-26T02:08:31;13.90;67.60
76384;SHT30;65204;48.606;7.598;2022-12-26T02:09:03;13.92;67.71
76384;SHT30;65204;48.606;7.598;2022-12-26T02:09:35;13.92;67.80
76384;SHT30;65204;48.606;7.598;2022-12-26T02:10:09;13.94;67.76
76384;SHT30;65204;48.606;7.598;2022-12-26T02:10:53;13.90;67.85
76384;SHT30;65204;48.606;7.598;2022-12-26T02:11:31;13.94;67.98
76384;SHT30;65204;48.606;7.598;2022-12-26T02:12:10;13.94;67.91
76384;SHT30;65204;48.606;7.598;2022-12-26T02:12:43;13.94;67.88
76384;SHT30;65204;48.606;7.598;2022-12-26T02:13:14;13.92;67.95
76384;SHT30;65204;48.606;7.598;2022-12-26T02:13:44;13.89;67.95
76384;SHT30;65204;48.606;7.598;2022-12-26T02:14:15;13.89;67.95
76384;SHT30;65204;48.606;7.598;2022-12-26T02:14:46;13.90;67.77
76384;SHT30;65204;48.606;7.598;2022-12-26T02:15:17;13.89;68.00
76384;SHT30;65204;48.606;7.598;2022-12-26T02:15:47;13.92;68.04
76384;SHT30;65204;48.606;7.598;2022-12-26T02:16:19;13.90;67.94
76384;SHT30;65204;48.606;7.598;2022-12-26T02:16:49;13.90;67.96
76384;SHT30;65204;48.606;7.598;2022-12-26T02:17:20;13.92;67.93
76384;SHT30;65204;48.606;7.598;2022-12-26T02:17:50;13.89;67.96
76384;SHT30;65204;48.606;7.598;2022-12-26T02:18:20;13.92;68.02
76384;SHT30;65204;48.606;7.598;2022-12-26T02:18:51;13.92;68.01
76384;SHT30;65204;48.606;7.598;2022-12-26T02:20:21;13.94;68.02
76384;SHT30;65204;48.606;7.598;2022-12-26T02:27:13;13.89;67.80
76384;SHT30;65204;48.606;7.598;2022-12-26T02:28:04;13.89;67.77
76384;SHT30;65204;48.606;7.598;2022-12-26T02:29:56;13.85;67.98
76384;SHT30;65204;48.606;7.598;2022-12-26T02:31:00;13.82;67.79
76384;SHT30;65204;48.606;7.598;2022-12-26T02:32:48;13.85;68.17
76384;SHT30;65204;48.606;7.598;2022-12-26T02:33:24;13.82;68.08
76384;SHT30;65204;48.606;7.598;2022-12-26T02:34:15;13.85;68.12
76384;SHT30;65204;48.606;7.598;2022-12-26T02:37:40;13.76;68.40
76384;SHT30;65204;48.606;7.598;2022-12-26T02:38:32;13.75;68.36
76384;SHT30;65204;48.606;7.598;2022-12-26T02:39:38;13.79;68.46
76384;SHT30;65204;48.606;7.598;2022-12-26T02:42:56;13.82;68.33
76384;SHT30;65204;48.606;7.598;2022-12-26T02:44:24;13.82;68.14
76384;SHT30;65204;48.606;7.598;2022-12-26T02:46:31;13.81;68.41
76384;SHT30;65204;48.606;7.598;2022-12-26T02:48:05;13.82;68.23
76384;SHT30;65204;48.606;7.598;2022-12-26T02:49:54;13.81;68.44
76384;SHT30;65204;48.606;7.598;2022-12-26T02:52:09;13.78;68.39
76384;SHT30;65204;48.606;7.598;2022-12-26T02:55:25;13.79;68.46
76384;SHT30;65204;48.606;7.598;2022-12-26T02:56:31;13.79;68.48
76384;SHT30;65204;48.606;7.598;2022-12-26T02:57:25;13.81;68.34
76384;SHT30;65204;48.606;7.598;2022-12-26T02:58:23;13.79;68.48
76384;SHT30;65204;48.606;7.598;2022-12-26T02:59:23;13.79;68.38
76384;SHT30;65204;48.606;7.598;2022-12-26T03:00:18;13.79;68.21
76384;SHT30;65204;48.606;7.598;2022-12-26T03:01:36;13.79;68.37
76384;SHT30;65204;48.606;7.598;2022-12-26T03:03:51;13.75;68.42
76384;SHT30;65204;48.606;7.598;2022-12-26T03:04:44;13.71;68.59
76384;SHT30;65204;48.606;7.598;2022-12-26T03:06:53;13.65;68.51
76384;SHT30;65204;48.606;7.598;2022-12-26T03:07:44;13.68;68.69
76384;SHT30;65204;48.606;7.598;2022-12-26T03:08:38;13.69;68.71
76384;SHT30;65204;48.606;7.598;2022-12-26T03:09:32;13.71;68.74
76384;SHT30;65204;48.606;7.598;2022-12-26T03:10:32;13.71;68.75
76384;SHT30;65204;48.606;7.598;2022-12-26T03:11:25;13.74;68.59
76384;SHT30;65204;48.606;7.598;2022-12-26T03:13:14;13.74;68.54
76384;SHT30;65204;48.606;7.598;2022-12-26T03:13:47;13.75;68.54
76384;SHT30;65204;48.606;7.598;2022-12-26T03:14:23;13.72;68.57
76384;SHT30;65204;48.606;7.598;2022-12-26T03:15:00;13.75;68.52
76384;SHT30;65204;48.606;7.598;2022-12-26T03:15:32;13.75;68.64
76384;SHT30;65204;48.606;7.598;2022-12-26T03:16:24;13.76;68.72
76384;SHT30;65204;48.606;7.598;2022-12-26T03:17:32;13.76;68.71
76384;SHT30;65204;48.606;7.598;2022-12-26T03:18:05;13.76;68.66
76384;SHT30;65204;48.606;7.598;2022-12-26T03:18:39;13.76;68.51
76384;SHT30;65204;48.606;7.598;2022-12-26T03:19:11;13.78;68.62
76384;SHT30;65204;48.606;7.598;2022-12-26T03:19:54;13.78;68.62
76384;SHT30;65204;48.606;7.598;2022-12-26T03:20:30;13.79;68.59
76384;SHT30;65204;48.606;7.598;2022-12-26T03:21:04;13.78;68.69
76384;SHT30;65204;48.606;7.598;2022-12-26T03:21:40;13.75;68.70
76384;SHT30;65204;48.606;7.598;2022-12-26T03:22:11;13.76;68.57
76384;SHT30;65204;48.606;7.598;2022-12-26T03:23:06;13.74;68.40
76384;SHT30;65204;48.606;7.598;2022-12-26T03:23:40;13.72;68.52
76384;SHT30;65204;48.606;7.598;2022-12-26T03:24:13;13.74;68.63
76384;SHT30;65204;48.606;7.598;2022-12-26T03:24:44;13.74;68.65
76384;SHT30;65204;48.606;7.598;2022-12-26T03:25:45;13.75;68.70
76384;SHT30;65204;48.606;7.598;2022-12-26T03:26:42;13.76;68.56
76384;SHT30;65204;48.606;7.598;2022-12-26T03:27:16;13.78;68.56
76384;SHT30;65204;48.606;7.598;2022-12-26T03:27:46;13.78;68.60
76384;SHT30;65204;48.606;7.598;2022-12-26T03:28:17;13.78;68.55
76384;SHT30;65204;48.606;7.598;2022-12-26T03:28:47;13.75;68.55
76384;SHT30;65204;48.606;7.598;2022-12-26T03:29:20;13.78;68.51
76384;SHT30;65204;48.606;7.598;2022-12-26T03:30:26;13.78;68.60
76384;SHT30;65204;48.606;7.598;2022-12-26T03:31:15;13.76;68.51
76384;SHT30;65204;48.606;7.598;2022-12-26T03:31:46;13.74;68.53
76384;SHT30;65204;48.606;7.598;2022-12-26T03:32:16;13.72;68.56
76384;SHT30;65204;48.606;7.598;2022-12-26T03:32:47;13.71;68.63
76384;SHT30;65204;48.606;7.598;2022-12-26T03:33:28;13.72;68.73
76384;SHT30;65204;48.606;7.598;2022-12-26T03:34:18;13.76;68.70
76384;SHT30;65204;48.606;7.598;2022-12-26T03:34:49;13.74;68.78
76384;SHT30;65204;48.606;7.598;2022-12-26T03:35:19;13.75;68.68
76384;SHT30;65204;48.606;7.598;2022-12-26T03:35:49;13.74;68.65
76384;SHT30;65204;48.606;7.598;2022-12-26T03:38:14;13.79;68.61
76384;SHT30;65204;48.606;7.598;2022-12-26T03:40:47;13.78;68.40
76384;SHT30;65204;48.606;7.598;2022-12-26T03:41:53;13.76;68.37
76384;SHT30;65204;48.606;7.598;2022-12-26T03:43:18;13.74;68.66
76384;SHT30;65204;48.606;7.598;2022-12-26T03:45:23;13.76;68.58
76384;SHT30;65204;48.606;7.598;2022-12-26T03:47:40;13.75;68.53
76384;SHT30;65204;48.606;7.598;2022-12-26T03:48:48;13.72;68.53
76384;SHT30;65204;48.606;7.598;2022-12-26T03:49:45;13.72;68.57
76384;SHT30;65204;48.606;7.598;2022-12-26T03:50:40;13.74;68.61
76384;SHT30;65204;48.606;7.598;2022-12-26T03:53:34;13.72;68.58
76384;SHT30;65204;48.606;7.598;2022-12-26T03:55:57;13.72;68.74
76384;SHT30;65204;48.606;7.598;2022-12-26T03:56:52;13.75;68.76
76384;SHT30;65204;48.606;7.598;2022-12-26T03:58:00;13.72;68.79
76384;SHT30;65204;48.606;7.598;2022-12-26T04:00:08;13.74;68.77
76384;SHT30;65204;48.606;7.598;2022-12-26T04:01:00;13.72;68.76
76384;SHT30;65204;48.606;7.598;2022-12-26T04:01:53;13.72;68.81
76384;SHT30;65204;48.606;7.598;2022-12-26T04:02:45;13.74;68.79
76384;SHT30;65204;48.606;7.598;2022-12-26T04:03:39;13.71;68.64
76384;SHT30;65204;48.606;7.598;2022-12-26T04:04:31;13.71;68.70
76384;SHT30;65204;48.606;7.598;2022-12-26T04:05:21;13.71;68.83
76384;SHT30;65204;48.606;7.598;2022-12-26T04:06:17;13.69;68.78
76384;SHT30;65204;48.606;7.598;2022-12-26T04:07:19;13.69;68.91
76384;SHT30;65204;48.606;7.598;2022-12-26T04:08:17;13.71;68.80
76384;SHT30;65204;48.606;7.598;2022-12-26T04:09:18;13.71;68.66
76384;SHT30;65204;48.606;7.598;2022-12-26T04:10:18;13.71;68.80
76384;SHT30;65204;48.606;7.598;2022-12-26T04:11:13;13.71;68.88
76384;SHT30;65204;48.606;7.598;2022-12-26T04:12:04;13.71;68.76
76384;SHT30;65204;48.606;7.598;2022-12-26T04:12:55;13.72;68.73
76384;SHT30;65204;48.606;7.598;2022-12-26T04:13:48;13.72;68.80
76384;SHT30;65204;48.606;7.598;2022-12-26T04:16:44;13.74;68.85
76384;SHT30;65204;48.606;7.598;2022-12-26T04:18:02;13.74;68.81
76384;SHT30;65204;48.606;7.598;2022-12-26T04:19:01;13.76;68.73
76384;SHT30;65204;48.606;7.598;2022-12-26T04:20:23;13.76;68.94
76384;SHT30;65204;48.606;7.598;2022-12-26T04:21:14;13.75;69.06
76384;SHT30;65204;48.606;7.598;2022-12-26T04:22:25;13.75;69.11
76384;SHT30;65204;48.606;7.598;2022-12-26T04:23:42;13.75;69.34
76384;SHT30;65204;48.606;7.598;2022-12-26T04:24:34;13.74;69.59
76384;SHT30;65204;48.606;7.598;2022-12-26T04:25:28;13.76;69.64
76384;SHT30;65204;48.606;7.598;2022-12-26T04:26:42;13.74;69.72
76384;SHT30;65204;48.606;7.598;2022-12-26T04:27:32;13.72;69.88
76384;SHT30;65204;48.606;7.598;2022-12-26T04:28:22;13.72;70.02
76384;SHT30;65204;48.606;7.598;2022-12-26T04:29:11;13.68;70.21
76384;SHT30;65204;48.606;7.598;2022-12-26T04:30:00;13.69;70.15
76384;SHT30;65204;48.606;7.598;2022-12-26T04:30:57;13.67;70.12
76384;SHT30;65204;48.606;7.598;2022-12-26T04:32:09;13.67;70.36
76384;SHT30;65204;48.606;7.598;2022-12-26T04:33:30;13.65;70.70
76384;SHT30;65204;48.606;7.598;2022-12-26T04:34:31;13.65;70.88
76384;SHT30;65204;48.606;7.598;2022-12-26T04:35:31;13.64;71.16
76384;SHT30;65204;48.606;7.598;2022-12-26T04:36:41;13.62;71.44
76384;SHT30;65204;48.606;7.598;2022-12-26T04:37:32;13.61;71.08
76384;SHT30;65204;48.606;7.598;2022-12-26T04:38:26;13.61;71.11
76384;SHT30;65204;48.606;7.598;2022-12-26T04:39:20;13.59;71.22
76384;SHT30;65204;48.606;7.598;2022-12-26T04:40:17;13.59;71.26
76384;SHT30;65204;48.606;7.598;2022-12-26T04:41:08;13.59;71.35
76384;SHT30;65204;48.606;7.598;2022-12-26T04:41:58;13.58;71.35